Airfield :
LOGIN :

Register | Disclaimer

   EN    FR    IT 

 










Legend :    VFR   Marginal VFR   IFR   Intensive IFR   Very Intensive IFR
Visi :
Ceiling :
>= 8 km
>= 3000ft
5 to 8 km
1000 to 3000 ft
1500m to 5 km
500 to 1000 ft
800 to 1500m
200 to 500 ft
< 800m
< 200 ft
Symbols :   Thunderstorms  Fog  Heavy snow  Heavy precipitations  Wind > 20 kt
SIGMETs :     Misc.  Thunderstorms  Icing  Turbulence  Mountain Waves  Volcanic Ashes






- Airport Elevation : 268 ft
- IATA code : BFS


EGAA - Belfast Aldergrove

CURRENT METAR :
  • 041420Z AUTO 25008KT 9999 BKN023 BKN036 14/12 Q1006

EXPIRED METARs :
  • 041350Z AUTO 26009KT 9999 BKN026 14/11 Q1006
  • 041320Z AUTO 25008KT 9999 FEW023 14/12 Q1006
  • 041250Z AUTO 26010KT 9999 SCT023 14/12 Q1006
  • 041220Z AUTO 26010KT 9999 NCD 14/12 Q1006

TAF TAF EGAA
Valid from the 04 at 12:00 until the 05 at 12:00 UTC


041057Z 0412/0512 24010KT 9999 FEW010 SCT030
PROB40
TEMPO 0412/0418 6000 RA SHRA BKN012
BECMG 0415/0418 18006KT
TEMPO 0418/0506 6000 RA BKN012
PROB40
TEMPO 0419/0505 3000 +RA RADZ BKN003
PROB30
TEMPO 0423/0506 21015G26KT
BECMG 0504/0506 26013KT
PROB40
TEMPO 0506/0512 7000 SHRA
PROB30
TEMPO 0510/0512 24017G27KT 3000 +SHRA



MET'MAP, your aeronautical weather chart ! - Copyright ORBIFLY December 2007 - Disclaimer

ORBIFLY MET'MAP TEAM :

Programming & Development : Alexandra Zaïnal
Original concept : Baudouin d'Aumeries
Technical & hardware support : Manuel Goepfert
Assistance : Marc-Olivier Méhu




SOURCES & CREDITS :

   NOAA